Detall de PIREP

Printer-friendly versionPDF version

[2017/03/26 14:05:00]
Flight IATA:CT3248
Pilot Number:012
Company ICAO:CAT
Aircraft Type:A320/E
PAX:150
Departing Airport: LEPA
Destination Airport: LOWW
Alternate Airport:LOWI
Online: VATSIM
Route:MEROS UN853 LUMAS UQ206 NOSTA DCT LAGEN DCT PIKOT DCT GIKEB DCT MALUG DCT ABTAN
Flight Level:F360
No Slew and time accel
No pause
Crash detect
Detect pilot in Cockpit between each 30 and 45 minutes
14:05 Zero fuel Weight: 119589 Lbs, Fuel Weight: 21693 Lbs
14:05 VATSIM:LEPA 261330Z 15007KT 090V200 CAVOK 21/07 Q1018 NOSIG
14:05 VATSIM:LOWW 261350Z 01013KT CAVOK 11/M04 Q1023 NOSIG
14:05 Parking Brakes off
14:10 Take-off
14:10 Take off Weight: 140547 Lbs
14:10 Wind: 140º @ 007 Knots Heading: 234º
14:10 POS N39º 33´ 07´´ E002º 43´ 17´´
14:10 Flaps:3 at 177 Knots
14:10 Gear Up: 178 Knots
14:10 Flaps:2 at 195 Knots
14:10 Flaps:1 at 199 Knots
14:10 Flaps:0 at 209 Knots
14:25 Wind:247º@055 Knots Heading: 043º Ground Speed: 508 Knots Altitude 32181 ft
14:28 TOC
14:28 Fuel Weight: 16780 Lb
14:40 Wind:225º@019 Knots Heading: 045º Ground Speed: 467 Knots Altitude 36135 ft
14:55 Wind:202º@014 Knots Heading: 048º Ground Speed: 460 Knots Altitude 36076 ft
15:10 Wind:135º@007 Knots Heading: 048º Ground Speed: 446 Knots Altitude 36135 ft
15:25 Wind:070º@018 Knots Heading: 053º Ground Speed: 430 Knots Altitude 36092 ft
15:40 Wind:069º@030 Knots Heading: 071º Ground Speed: 416 Knots Altitude 36118 ft
15:50 TOD
15:50 Fuel Weight: 9609 Lb
15:55 Wind:067º@097 Knots Heading: 073º Ground Speed: 294 Knots Altitude 27273 ft
16:10 Wind:088º@010 Knots Heading: 127º Ground Speed: 268 Knots Altitude 9215 ft
16:17 Flaps:1 at 240 Knots
16:18 Gear Down: 209 Knots
16:18 Flaps:3 at 206 Knots
16:18 Flaps:5 at 205 Knots
16:20 TouchDown:Rate -285 ft/min Speed: 133 Knots
16:21 VATSIM:LOWW 261550Z 02011KT CAVOK 10/M03 Q1024 NOSIG
16:21 Land
16:21 Wind:006º@012 Knots
16:21 Heading: 296º
16:21 Flight Duration: 02:11
16:21 Landing Weight: 126843 Lbs
16:21 POS N48º 06´ 52´´ E016º 33´ 31´´
16:22 Parking brakes on
16:22 Block to Block Duration: 02:17
16:22 Final Fuel: 7076 Lbls
16:22 Spent Fuel: 14616 Lbls
16:22 Flight Length: 875 NM
16:22 TOD Land Length: 140 NM

Exportar CSV

Powered by Drupal - Modified by Danger4k